Time;durP1;ratioP1;P1;durP2;ratioP2;P2;SDS_P1;SDS_P2;PMS_P1;PMS_P2;Temp;Humidity;BMP_temperature;BMP_pressure;BME280_temperature;BME280_humidity;BME280_pressure;Samples;Min_cycle;Max_cycle;Signal;HPM_P1;HPM_P2
2022/03/10 00:02:20;;;;;;;24.38;12.10;;;;;;;12.41;30.59;99126.47;5083629;28;20036;-78
2022/03/10 00:04:46;;;;;;;28.23;13.40;;;;;;;11.22;33.19;99133.00;5082487;28;20497;-78
2022/03/10 00:07:12;;;;;;;27.17;13.52;;;;;;;11.96;31.84;99132.78;5080807;28;20093;-78
2022/03/10 00:09:39;;;;;;;25.70;13.07;;;;;;;12.89;30.06;99137.06;5083598;28;20082;-78
2022/03/10 00:12:05;;;;;;;28.33;13.63;;;;;;;13.77;28.59;99134.91;5082048;28;20129;-78
2022/03/10 00:14:31;;;;;;;29.60;14.23;;;;;;;13.50;29.40;99143.78;5082022;28;20025;-78
2022/03/10 00:16:57;;;;;;;27.05;13.35;;;;;;;13.11;29.42;99141.50;5080171;28;20106;-78
2022/03/10 00:19:24;;;;;;;28.10;13.43;;;;;;;14.62;27.84;99142.59;5084360;28;20375;-78
2022/03/10 00:21:51;;;;;;;29.13;14.88;;;;;;;13.12;29.64;99156.88;5086689;28;20165;-78
2022/03/10 00:24:20;;;;;;;32.60;15.68;;;;;;;13.60;28.79;99153.59;5080413;28;20032;-78
2022/03/10 00:26:46;;;;;;;26.67;12.90;;;;;;;14.77;27.51;99142.69;5078792;28;20047;-78
2022/03/10 00:29:13;;;;;;;31.52;14.70;;;;;;;15.79;25.52;99145.88;5083805;28;20032;-78
2022/03/10 00:31:40;;;;;;;27.35;13.82;;;;;;;16.96;24.21;99137.81;5079214;28;20113;-78
2022/03/10 00:34:07;;;;;;;22.42;10.93;;;;;;;16.64;24.37;99148.13;5083674;28;20028;-78
2022/03/10 00:36:34;;;;;;;29.08;14.75;;;;;;;14.41;27.32;99154.56;5084536;28;20182;-78
2022/03/10 00:39:00;;;;;;;26.15;11.68;;;;;;;16.48;25.13;99156.44;5086282;28;20490;-78
2022/03/10 00:41:26;;;;;;;29.98;14.35;;;;;;;15.89;24.95;99147.31;5081547;28;20066;-78
2022/03/10 00:43:52;;;;;;;26.50;14.02;;;;;;;14.49;26.67;99164.69;5081776;28;20028;-78
2022/03/10 00:46:18;;;;;;;29.17;13.82;;;;;;;14.51;27.31;99164.34;5081229;28;20397;-78
2022/03/10 00:48:44;;;;;;;25.98;13.23;;;;;;;15.79;24.91;99154.16;5084226;28;20029;-79
2022/03/10 00:51:11;;;;;;;27.75;14.15;;;;;;;15.93;24.81;99155.72;5084244;28;20032;-78
2022/03/10 00:53:37;;;;;;;24.17;11.95;;;;;;;16.02;24.92;99164.66;5089013;28;20412;-78
2022/03/10 00:56:03;;;;;;;27.08;12.70;;;;;;;15.39;25.60;99166.38;5080585;28;20044;-79
2022/03/10 00:58:29;;;;;;;24.10;12.93;;;;;;;16.14;24.77;99168.19;5081804;28;20032;-78
2022/03/10 01:00:55;;;;;;;28.30;12.38;;;;;;;15.96;24.71;99166.09;5083348;28;20075;-78
2022/03/10 01:03:22;;;;;;;22.40;10.82;;;;;;;15.00;25.08;99160.44;5079977;28;20027;-78
2022/03/10 01:05:48;;;;;;;20.60;10.70;;;;;;;16.33;24.01;99156.41;5081036;28;20047;-78
2022/03/10 01:08:14;;;;;;;22.83;11.73;;;;;;;15.70;24.38;99163.78;5087957;28;20031;-78
2022/03/10 01:10:40;;;;;;;23.77;11.82;;;;;;;15.09;25.94;99165.84;5082802;28;20472;-78
2022/03/10 01:13:14;;;;;;;25.08;12.85;;;;;;;12.91;28.86;99172.53;5081899;28;20519;-78
2022/03/10 01:15:41;;;;;;;23.63;11.95;;;;;;;13.48;27.96;99168.13;5080400;28;20021;-78
2022/03/10 01:18:08;;;;;;;24.55;12.10;;;;;;;13.00;28.83;99174.09;5081082;28;20127;-78
2022/03/10 01:20:35;;;;;;;26.30;12.73;;;;;;;11.39;31.43;99174.22;5079639;28;20036;-78
2022/03/10 01:23:01;;;;;;;24.95;12.02;;;;;;;11.99;30.48;99168.72;5082788;28;20047;-78
2022/03/10 01:25:27;;;;;;;23.52;11.50;;;;;;;10.76;32.64;99171.22;5085763;28;20032;-78
2022/03/10 01:27:53;;;;;;;22.38;12.10;;;;;;;12.48;29.85;99170.81;5081488;28;20054;-78
2022/03/10 01:30:20;;;;;;;26.20;11.20;;;;;;;13.67;27.90;99171.22;5080951;28;20067;-78
2022/03/10 01:32:46;;;;;;;24.05;11.00;;;;;;;11.88;30.16;99170.16;5087108;28;20114;-78
2022/03/10 01:35:13;;;;;;;23.42;11.02;;;;;;;11.15;31.59;99184.06;5084762;28;20035;-77
2022/03/10 01:37:39;;;;;;;19.45;10.77;;;;;;;12.27;30.20;99177.38;5086836;28;20493;-78
2022/03/10 01:40:08;;;;;;;24.27;11.20;;;;;;;13.69;28.13;99176.41;5087883;28;20114;-78
2022/03/10 01:42:35;;;;;;;21.67;10.18;;;;;;;13.68;27.34;99180.28;5085917;28;20028;-78
2022/03/10 01:45:01;;;;;;;22.13;10.85;;;;;;;14.61;26.07;99179.69;5087828;28;20074;-78
2022/03/10 01:47:27;;;;;;;21.40;11.10;;;;;;;15.49;25.03;99168.69;5085288;28;20081;-78
2022/03/10 01:49:53;;;;;;;19.98;10.00;;;;;;;14.74;25.90;99175.78;5082473;28;20063;-78
2022/03/10 01:52:20;;;;;;;19.70;8.68;;;;;;;17.18;22.65;99168.47;5069080;28;20036;-78
2022/03/10 01:54:46;;;;;;;25.42;10.95;;;;;;;15.68;24.18;99180.72;5083270;28;20040;-78
2022/03/10 01:57:14;;;;;;;21.27;10.50;;;;;;;13.73;26.91;99189.19;5091187;28;20028;-78
2022/03/10 01:59:41;;;;;;;19.45;9.32;;;;;;;14.38;26.29;99193.91;5088071;28;20044;-78
2022/03/10 02:02:08;;;;;;;17.98;8.20;;;;;;;15.07;25.11;99190.28;5082142;28;20097;-78
2022/03/10 02:04:35;;;;;;;21.60;10.90;;;;;;;14.40;26.35;99197.13;5083745;28;20024;-78
2022/03/10 02:07:08;;;;;;;21.27;10.32;;;;;;;14.16;25.91;99182.44;5083568;28;20112;-78
2022/03/10 02:12:20;;;;;;;15.00;8.23;;;;;;;15.64;24.75;99190.88;5083648;28;20048;-78
2022/03/10 02:17:31;;;;;;;26.27;11.68;;;;;;;15.39;23.97;99194.84;5087633;28;20042;-78
2022/03/10 02:19:58;;;;;;;15.77;8.45;;;;;;;15.21;24.73;99202.63;5084171;28;20067;-78
2022/03/10 02:22:26;;;;;;;15.70;8.45;;;;;;;16.30;23.63;99190.38;5079673;28;20039;-78
2022/03/10 02:24:53;;;;;;;14.10;7.53;;;;;;;15.61;24.05;99193.56;5081734;28;20032;-78
2022/03/10 02:27:24;;;;;;;13.82;7.60;;;;;;;16.43;22.89;99200.22;5081811;28;20484;-77
2022/03/10 02:29:57;;;;;;;15.68;8.07;;;;;;;16.10;23.39;99208.03;5082376;28;20542;-78
2022/03/10 02:32:24;;;;;;;15.75;8.40;;;;;;;15.11;24.30;99208.59;5082758;28;20040;-78
2022/03/10 02:34:50;;;;;;;15.38;7.82;;;;;;;13.75;26.49;99220.00;5083616;28;20023;-78
2022/03/10 02:37:16;;;;;;;17.65;8.23;;;;;;;15.04;24.94;99221.38;5088049;28;20528;-78
2022/03/10 02:39:44;;;;;;;14.68;8.00;;;;;;;14.05;25.98;99228.19;5083793;28;20111;-77
2022/03/10 02:42:11;;;;;;;12.25;8.00;;;;;;;14.65;25.15;99222.88;5086473;28;20070;-78
2022/03/10 02:44:45;;;;;;;14.48;7.45;;;;;;;14.61;24.40;99229.44;5083769;28;20064;-77
2022/03/10 02:47:12;;;;;;;16.23;7.00;;;;;;;13.71;26.17;99227.34;5080171;28;20031;-77
2022/03/10 02:49:39;;;;;;;15.30;7.45;;;;;;;12.35;27.71;99232.41;5085485;28;20166;-77
2022/03/10 02:52:06;;;;;;;14.73;7.78;;;;;;;12.78;27.13;99242.47;5086523;28;20028;-77
2022/03/10 02:54:32;;;;;;;14.93;7.57;;;;;;;11.17;29.55;99240.31;5080330;28;20029;-77
2022/03/10 02:56:59;;;;;;;16.80;8.38;;;;;;;10.74;30.84;99258.59;5082716;28;20187;-77
2022/03/10 02:59:25;;;;;;;15.23;7.75;;;;;;;10.72;30.81;99258.09;5083770;28;20039;-77
2022/03/10 03:01:52;;;;;;;17.52;7.80;;;;;;;13.18;27.10;99246.53;5086634;28;20036;-77
2022/03/10 03:04:18;;;;;;;14.82;7.72;;;;;;;14.70;24.56;99255.00;5084375;28;20035;-78
2022/03/10 03:06:45;;;;;;;12.77;7.30;;;;;;;15.94;22.94;99257.03;5083283;28;20557;-77
2022/03/10 03:09:11;;;;;;;13.27;6.32;;;;;;;15.39;23.30;99260.44;5081728;28;20070;-77
2022/03/10 03:11:37;;;;;;;13.60;6.85;;;;;;;16.36;22.19;99261.03;5085065;28;20084;-77
2022/03/10 03:14:04;;;;;;;14.85;7.07;;;;;;;16.67;21.39;99263.88;5082181;28;20028;-77
2022/03/10 03:16:30;;;;;;;12.02;6.70;;;;;;;15.11;23.08;99277.75;5067607;28;20020;-77
2022/03/10 03:18:57;;;;;;;12.30;6.10;;;;;;;17.02;20.99;99273.13;5084582;28;20397;-77
2022/03/10 03:21:26;;;;;;;13.52;6.65;;;;;;;16.37;21.21;99282.03;5085258;28;20055;-77
2022/03/10 03:23:52;;;;;;;10.80;5.93;;;;;;;16.90;20.62;99281.53;5083623;28;20039;-77
2022/03/10 03:26:18;;;;;;;10.18;5.65;;;;;;;14.65;22.77;99291.97;5061574;28;20129;-77
2022/03/10 03:28:44;;;;;;;12.07;6.40;;;;;;;14.57;23.61;99297.56;5062206;28;20036;-77
2022/03/10 03:31:11;;;;;;;15.07;6.57;;;;;;;12.14;26.87;99304.97;5063601;28;20040;-77
2022/03/10 03:33:38;;;;;;;10.45;6.00;;;;;;;11.82;27.55;99305.47;5059914;28;20037;-77
2022/03/10 03:36:05;;;;;;;12.18;7.10;;;;;;;12.35;26.71;99303.19;5062404;28;20025;-77
2022/03/10 03:38:31;;;;;;;14.32;6.38;;;;;;;11.40;27.79;99307.81;5063731;28;20094;-77
2022/03/10 03:40:59;;;;;;;7.75;5.43;;;;;;;10.51;29.87;99314.69;5060219;28;20028;-77
2022/03/10 03:43:25;;;;;;;10.60;5.80;;;;;;;9.83;31.11;99310.25;5062405;28;20036;-77
2022/03/10 03:45:51;;;;;;;14.57;6.88;;;;;;;9.21;32.31;99319.31;5058375;28;20028;-77
2022/03/10 03:48:17;;;;;;;11.52;6.93;;;;;;;8.08;34.27;99326.25;5061154;28;20038;-77
2022/03/10 03:50:43;;;;;;;9.20;6.38;;;;;;;9.04;32.59;99328.13;5062386;28;20409;-77
2022/03/10 03:53:09;;;;;;;10.57;6.47;;;;;;;9.55;31.76;99330.63;5060606;28;20143;-77
2022/03/10 03:55:36;;;;;;;12.82;6.78;;;;;;;9.38;32.03;99330.47;5061606;28;20076;-77
2022/03/10 03:58:02;;;;;;;9.77;5.57;;;;;;;10.24;30.72;99343.91;5057154;28;20478;-77
2022/03/10 04:00:28;;;;;;;12.80;6.75;;;;;;;9.29;31.78;99337.78;5056572;28;21926;-77
2022/03/10 04:02:54;;;;;;;13.82;7.45;;;;;;;8.80;32.90;99357.59;5058200;28;20116;-77
2022/03/10 04:05:20;;;;;;;12.50;6.93;;;;;;;8.95;32.31;99354.59;5057342;28;20044;-77
2022/03/10 04:07:46;;;;;;;11.23;6.20;;;;;;;10.40;29.78;99353.38;5059377;28;20534;-77
2022/03/10 04:10:13;;;;;;;10.95;6.32;;;;;;;10.19;29.97;99359.66;5058957;28;20072;-77
2022/03/10 04:12:39;;;;;;;14.27;6.60;;;;;;;10.99;28.90;99354.84;5061965;28;20512;-77
2022/03/10 04:15:06;;;;;;;11.70;6.72;;;;;;;10.55;29.24;99362.38;5062089;28;20036;-77
2022/03/10 04:17:32;;;;;;;14.43;6.95;;;;;;;10.50;29.76;99365.22;5060131;28;20040;-77
2022/03/10 04:19:59;;;;;;;10.45;6.10;;;;;;;11.66;27.79;99371.13;5064379;28;20400;-77
2022/03/10 04:22:25;;;;;;;12.20;6.35;;;;;;;10.80;29.22;99380.94;5064064;28;20025;-77
2022/03/10 04:24:51;;;;;;;11.45;6.28;;;;;;;9.82;30.05;99373.66;5057848;28;20033;-77
2022/03/10 04:27:18;;;;;;;13.60;6.20;;;;;;;11.68;27.76;99377.13;5085060;28;20044;-77
2022/03/10 04:29:44;;;;;;;14.63;8.32;;;;;;;11.35;27.80;99390.41;5080185;28;20501;-77
2022/03/10 04:32:10;;;;;;;12.35;7.13;;;;;;;12.90;25.86;99388.66;5062949;28;20294;-78
2022/03/10 04:34:36;;;;;;;11.60;6.82;;;;;;;12.41;26.43;99388.09;5088288;28;20039;-78
2022/03/10 04:37:02;;;;;;;10.00;6.28;;;;;;;13.26;24.97;99383.53;5084692;28;20028;-78
2022/03/10 04:39:28;;;;;;;9.18;5.50;;;;;;;11.61;26.61;99398.75;5083676;28;20036;-77
2022/03/10 04:41:54;;;;;;;14.73;7.18;;;;;;;9.48;30.00;99398.75;5085436;28;20028;-77
2022/03/10 04:44:20;;;;;;;11.68;6.80;;;;;;;9.72;29.81;99410.34;5079660;28;20097;-77
2022/03/10 04:46:46;;;;;;;14.40;7.10;;;;;;;10.02;29.57;99408.84;5083890;28;20366;-78
2022/03/10 04:49:13;;;;;;;16.15;7.35;;;;;;;10.21;28.62;99407.63;5082634;28;20154;-77
2022/03/10 04:51:39;;;;;;;11.25;5.80;;;;;;;10.88;27.87;99413.13;5086111;28;20031;-77
2022/03/10 04:54:05;;;;;;;11.50;6.03;;;;;;;9.34;29.88;99423.44;5080173;28;20113;-77
2022/03/10 04:56:31;;;;;;;11.93;6.60;;;;;;;9.05;30.66;99431.91;5083178;28;20032;-77
2022/03/10 04:58:57;;;;;;;14.27;6.57;;;;;;;9.93;29.14;99430.72;5084048;28;20792;-77
2022/03/10 05:01:23;;;;;;;14.45;6.32;;;;;;;10.61;27.74;99427.81;5082252;28;20021;-77
2022/03/10 05:03:50;;;;;;;15.15;7.25;;;;;;;10.29;28.35;99433.53;5081198;28;20232;-77
2022/03/10 05:06:16;;;;;;;14.38;6.70;;;;;;;11.13;26.94;99437.22;5082467;28;20031;-77
2022/03/10 05:08:42;;;;;;;12.40;7.13;;;;;;;10.94;26.88;99440.19;5079338;28;20049;-78
2022/03/10 05:11:08;;;;;;;12.80;6.57;;;;;;;12.20;25.40;99431.16;5082844;28;20079;-77
2022/03/10 05:13:34;;;;;;;10.98;5.13;;;;;;;13.82;23.42;99437.50;5084981;28;20040;-78
2022/03/10 05:16:01;;;;;;;10.85;5.72;;;;;;;12.69;24.44;99438.13;5082274;28;20024;-78
2022/03/10 05:18:27;;;;;;;12.13;6.05;;;;;;;12.92;23.95;99439.56;5083569;28;20035;-78
2022/03/10 05:20:53;;;;;;;13.23;6.65;;;;;;;12.21;25.19;99452.03;5087311;28;20024;-78
2022/03/10 05:23:19;;;;;;;9.65;5.32;;;;;;;12.09;24.98;99460.09;5066636;28;20070;-78
2022/03/10 05:25:45;;;;;;;10.95;6.20;;;;;;;12.45;24.59;99457.09;5083001;28;20480;-78
2022/03/10 05:28:13;;;;;;;10.90;6.00;;;;;;;11.96;25.10;99465.72;5082823;28;20048;-78
2022/03/10 05:30:41;;;;;;;9.77;4.53;;;;;;;12.75;24.40;99466.31;5079717;28;20027;-78
2022/03/10 05:33:09;;;;;;;13.68;5.15;;;;;;;10.64;26.81;99471.09;5082221;28;20497;-78
2022/03/10 05:35:35;;;;;;;11.57;6.32;;;;;;;10.83;27.21;99473.69;5082549;28;20028;-78
2022/03/10 05:38:02;;;;;;;10.13;5.65;;;;;;;10.56;27.30;99482.03;5079663;28;20549;-77
2022/03/10 05:40:28;;;;;;;13.82;6.05;;;;;;;11.03;27.03;99486.94;5080871;28;20073;-78
2022/03/10 05:42:55;;;;;;;9.50;5.30;;;;;;;13.09;23.88;99485.63;5083360;28;20078;-77
2022/03/10 05:45:22;;;;;;;8.75;4.75;;;;;;;12.23;24.47;99493.00;5084355;28;20035;-78
2022/03/10 05:47:50;;;;;;;11.18;5.40;;;;;;;12.59;24.32;99493.53;5086272;28;20028;-79
2022/03/10 05:50:17;;;;;;;10.27;5.30;;;;;;;11.75;25.17;99490.28;5067672;28;20039;-78
2022/03/10 05:52:45;;;;;;;10.73;5.85;;;;;;;10.05;27.14;99498.78;5080107;28;20036;-78
2022/03/10 05:55:12;;;;;;;12.55;5.85;;;;;;;9.31;28.53;99495.28;5081892;28;20039;-78
2022/03/10 05:57:39;;;;;;;11.85;5.60;;;;;;;9.97;27.99;99505.78;5083575;28;20086;-78
2022/03/10 06:00:06;;;;;;;14.88;6.15;;;;;;;9.46;28.43;99497.75;5076753;28;20037;-78
2022/03/10 06:02:32;;;;;;;9.75;5.35;;;;;;;10.78;26.45;99506.78;5078692;28;20204;-77
2022/03/10 06:05:02;;;;;;;9.82;5.75;;;;;;;12.86;23.28;99492.44;5050870;28;20493;-78
2022/03/10 06:07:28;;;;;;;11.23;5.15;;;;;;;13.13;22.76;99503.13;5076071;28;20032;-78
2022/03/10 06:09:55;;;;;;;11.63;5.63;;;;;;;12.88;22.76;99518.50;5080983;28;20067;-78
2022/03/10 06:12:27;;;;;;;11.30;5.40;;;;;;;11.21;25.13;99523.56;5066616;28;20519;-77
2022/03/10 06:14:58;;;;;;;10.13;5.75;;;;;;;12.25;23.71;99532.06;5084132;28;20036;-77
2022/03/10 06:17:25;;;;;;;11.23;5.22;;;;;;;10.03;26.49;99536.69;5085814;28;20035;-78
2022/03/10 06:19:51;;;;;;;10.27;4.05;;;;;;;10.81;24.60;99541.84;5086444;28;20064;-78
2022/03/10 06:22:18;;;;;;;9.40;4.63;;;;;;;11.51;24.36;99540.09;5083086;28;20035;-78
2022/03/10 06:24:45;;;;;;;16.00;5.53;;;;;;;11.31;24.50;99537.06;5087548;28;20489;-78
2022/03/10 06:27:15;;;;;;;9.15;4.32;;;;;;;10.09;25.83;99560.16;5086368;28;20067;-78
2022/03/10 06:29:42;;;;;;;12.48;5.35;;;;;;;10.15;25.73;99554.28;5087146;28;20766;-78
2022/03/10 06:32:08;;;;;;;12.23;4.82;;;;;;;13.07;22.20;99548.53;5086522;28;20036;-78
2022/03/10 06:34:37;;;;;;;8.32;4.28;;;;;;;13.18;21.35;99543.50;5088169;28;20039;-77
2022/03/10 06:37:04;;;;;;;7.53;4.25;;;;;;;12.12;22.95;99555.81;5067530;28;20456;-77
2022/03/10 06:39:30;;;;;;;7.68;4.32;;;;;;;12.59;22.46;99570.69;5086310;28;20032;-77
2022/03/10 06:41:57;;;;;;;10.73;5.00;;;;;;;14.03;20.80;99562.63;5082330;28;20043;-77
2022/03/10 06:44:24;;;;;;;8.30;4.82;;;;;;;13.07;21.94;99565.06;5088175;28;20027;-77
2022/03/10 06:46:51;;;;;;;9.38;5.03;;;;;;;12.31;21.83;99583.06;5089824;28;20052;-77
2022/03/10 06:49:17;;;;;;;12.35;4.65;;;;;;;11.75;22.87;99581.88;5083440;28;20028;-77
2022/03/10 06:51:43;;;;;;;8.85;4.70;;;;;;;9.72;25.60;99583.91;5090214;28;20467;-77
2022/03/10 06:54:10;;;;;;;9.80;4.95;;;;;;;10.01;25.23;99588.31;5088733;28;20159;-77
2022/03/10 06:56:37;;;;;;;12.27;5.60;;;;;;;8.88;27.46;99584.19;5088387;28;20031;-77
2022/03/10 06:59:03;;;;;;;14.32;5.57;;;;;;;9.24;27.14;99588.00;5080817;28;20565;-77
2022/03/10 07:01:30;;;;;;;9.82;4.40;;;;;;;12.14;22.99;99592.09;5082108;28;20043;-77
2022/03/10 07:03:57;;;;;;;7.43;4.43;;;;;;;10.68;24.31;99597.66;5081137;28;20031;-77
2022/03/10 07:06:24;;;;;;;11.93;4.85;;;;;;;10.67;23.69;99604.25;5084760;28;20051;-77
2022/03/10 07:08:50;;;;;;;10.25;4.93;;;;;;;10.34;24.35;99596.16;5091283;28;20050;-77
2022/03/10 07:11:16;;;;;;;8.63;4.10;;;;;;;9.48;25.35;99605.16;5074832;28;20185;-77
2022/03/10 07:13:44;;;;;;;9.40;3.83;;;;;;;12.87;22.60;99612.53;5085591;28;20131;-77
2022/03/10 07:16:10;;;;;;;7.20;3.22;;;;;;;12.49;21.97;99610.34;5078776;28;20047;-77
2022/03/10 07:18:36;;;;;;;5.93;3.78;;;;;;;11.90;23.27;99610.13;5083948;28;20401;-77
2022/03/10 07:21:04;;;;;;;7.43;3.53;;;;;;;13.97;20.56;99610.88;5082681;28;20490;-77
2022/03/10 07:23:31;;;;;;;7.13;3.53;;;;;;;15.00;19.40;99607.63;5082465;28;20035;-77
2022/03/10 07:25:57;;;;;;;4.90;3.15;;;;;;;12.40;20.93;99614.22;5086570;28;20040;-77
2022/03/10 07:28:24;;;;;;;7.13;3.70;;;;;;;11.69;22.22;99621.63;5086704;28;20092;-77
2022/03/10 07:30:50;;;;;;;7.18;3.28;;;;;;;12.05;21.04;99623.44;5085161;28;20102;-77
2022/03/10 07:33:16;;;;;;;7.05;3.03;;;;;;;11.73;22.58;99621.81;5085932;28;20570;-77
2022/03/10 07:35:43;;;;;;;8.10;3.95;;;;;;;9.97;23.05;99629.22;5081893;28;20031;-77
2022/03/10 07:38:10;;;;;;;6.28;2.88;;;;;;;10.57;22.91;99627.25;5079616;28;20367;-78
2022/03/10 07:40:37;;;;;;;4.97;2.95;;;;;;;9.77;23.76;99632.34;5086704;28;20025;-77
2022/03/10 07:43:05;;;;;;;7.82;3.58;;;;;;;9.80;25.05;99639.16;5078496;28;20051;-77
2022/03/10 07:45:32;;;;;;;6.72;3.25;;;;;;;8.92;24.93;99640.00;5080070;28;20033;-77
2022/03/10 07:47:58;;;;;;;3.53;2.45;;;;;;;10.32;24.09;99625.03;5079841;28;20113;-77
2022/03/10 07:50:25;;;;;;;8.07;3.50;;;;;;;11.40;22.09;99625.91;5081109;28;20032;-78
2022/03/10 07:52:51;;;;;;;5.15;2.72;;;;;;;12.30;20.04;99631.00;5080239;28;20617;-77
2022/03/10 07:55:17;;;;;;;6.45;2.70;;;;;;;11.17;20.89;99638.03;5091662;28;20099;-78
2022/03/10 07:57:43;;;;;;;7.18;3.20;;;;;;;9.97;22.88;99640.19;5080271;28;20036;-77
2022/03/10 08:00:10;;;;;;;6.90;3.05;;;;;;;11.48;21.77;99631.47;5086013;28;20036;-78
2022/03/10 08:02:37;;;;;;;5.40;2.97;;;;;;;12.04;21.66;99641.09;5088371;28;20047;-78
2022/03/10 08:05:04;;;;;;;5.25;3.05;;;;;;;12.98;21.47;99635.91;5085360;28;20044;-77
2022/03/10 08:07:34;;;;;;;6.07;2.88;;;;;;;12.69;19.89;99638.44;5078627;28;20405;-78
2022/03/10 08:10:05;;;;;;;7.43;2.80;;;;;;;13.96;17.76;99630.53;5089819;28;20508;-78
2022/03/10 08:12:32;;;;;;;5.85;2.53;;;;;;;13.37;18.49;99632.25;5082890;28;20039;-78
2022/03/10 08:14:59;;;;;;;4.18;2.70;;;;;;;12.79;19.06;99638.94;5084394;28;20028;-77
2022/03/10 08:17:26;;;;;;;5.68;2.90;;;;;;;12.93;19.15;99645.13;5081569;28;20028;-78
2022/03/10 08:19:52;;;;;;;4.30;2.47;;;;;;;11.59;20.04;99643.06;5089741;28;20040;-78
2022/03/10 08:22:21;;;;;;;3.78;2.65;;;;;;;10.35;21.77;99643.63;5082883;28;20041;-78
2022/03/10 08:24:47;;;;;;;3.45;2.13;;;;;;;12.89;20.23;99649.69;5087841;28;20032;-77
2022/03/10 08:27:17;;;;;;;4.68;2.40;;;;;;;14.71;17.60;99643.59;5082556;28;20044;-78
2022/03/10 08:29:44;;;;;;;6.97;2.67;;;;;;;12.34;19.15;99654.88;5081304;28;20078;-78
2022/03/10 08:32:11;;;;;;;2.67;1.83;;;;;;;11.36;19.99;99653.25;5080379;28;20130;-78
2022/03/10 08:34:38;;;;;;;4.28;2.47;;;;;;;13.31;18.13;99661.09;5083071;28;20051;-78
2022/03/10 08:37:05;;;;;;;4.57;2.28;;;;;;;14.27;17.50;99653.19;5062399;28;20402;-78
2022/03/10 08:39:31;;;;;;;5.70;3.05;;;;;;;14.09;18.64;99657.97;5082021;28;20040;-78
2022/03/10 08:41:59;;;;;;;5.00;2.53;;;;;;;14.52;17.30;99655.06;5077227;28;20086;-78
2022/03/10 08:44:26;;;;;;;5.28;2.40;;;;;;;14.27;18.10;99648.47;5082043;28;20440;-78
2022/03/10 08:46:52;;;;;;;5.28;2.65;;;;;;;13.12;18.87;99653.97;5078482;28;20081;-78
2022/03/10 08:49:18;;;;;;;5.10;2.92;;;;;;;10.92;20.36;99656.69;5083940;28;20143;-78
2022/03/10 08:51:47;;;;;;;4.10;2.25;;;;;;;11.86;19.73;99655.88;5077489;28;20485;-78
2022/03/10 08:54:14;;;;;;;4.35;2.13;;;;;;;10.47;20.61;99665.09;5083857;28;20032;-78
2022/03/10 08:56:40;;;;;;;4.53;2.17;;;;;;;11.00;19.49;99668.91;5079686;28;20040;-78
2022/03/10 08:59:06;;;;;;;4.63;2.25;;;;;;;12.52;18.57;99660.41;5084593;28;20035;-78
2022/03/10 09:01:32;;;;;;;4.82;2.58;;;;;;;12.18;19.54;99647.34;5078048;28;20122;-78
2022/03/10 09:03:59;;;;;;;3.70;2.30;;;;;;;11.86;19.78;99664.13;5086668;28;20028;-78
2022/03/10 09:06:25;;;;;;;3.90;2.15;;;;;;;12.88;18.76;99667.34;5080999;28;20071;-78
2022/03/10 09:08:51;;;;;;;4.10;2.30;;;;;;;11.00;19.71;99660.66;5084527;28;20031;-78
2022/03/10 09:11:18;;;;;;;4.10;2.72;;;;;;;11.30;20.09;99665.47;5082207;28;20037;-78
2022/03/10 09:13:48;;;;;;;3.28;2.30;;;;;;;13.08;18.78;99677.00;5078352;28;20154;-78
2022/03/10 09:16:16;;;;;;;3.65;2.60;;;;;;;11.93;20.03;99676.31;5078379;28;20977;-78
2022/03/10 09:18:43;;;;;;;5.40;3.00;;;;;;;11.32;20.99;99668.72;5079375;28;20024;-78
2022/03/10 09:21:09;;;;;;;4.28;2.20;;;;;;;12.53;20.05;99671.13;5077342;28;20036;-78
2022/03/10 09:23:36;;;;;;;5.30;2.85;;;;;;;11.91;20.11;99667.56;5081164;28;20020;-78
2022/03/10 09:26:02;;;;;;;5.18;3.03;;;;;;;11.14;21.04;99683.44;5083822;28;20040;-78
2022/03/10 09:28:28;;;;;;;3.30;2.63;;;;;;;13.14;19.05;99678.44;5081958;28;20066;-78
2022/03/10 09:30:54;;;;;;;6.78;2.88;;;;;;;14.06;17.90;99674.34;5084719;28;20035;-78
2022/03/10 09:33:20;;;;;;;4.53;2.90;;;;;;;11.94;19.61;99683.47;5087496;28;20393;-78
2022/03/10 09:35:47;;;;;;;4.95;3.42;;;;;;;11.38;20.01;99686.72;5080399;28;20032;-78
2022/03/10 09:38:13;;;;;;;3.58;2.70;;;;;;;10.17;21.66;99689.28;5080781;28;20494;-78
2022/03/10 09:40:39;;;;;;;5.55;2.95;;;;;;;9.85;21.31;99702.94;5078156;28;20028;-78
2022/03/10 09:43:05;;;;;;;4.70;2.83;;;;;;;10.73;20.29;99689.00;5081433;28;20071;-78
2022/03/10 09:45:31;;;;;;;4.35;2.80;;;;;;;11.17;19.71;99679.25;5089430;28;20096;-78
2022/03/10 09:47:57;;;;;;;5.47;2.63;;;;;;;12.11;19.05;99675.28;5080618;28;20533;-78
2022/03/10 09:50:24;;;;;;;4.50;2.83;;;;;;;12.13;19.07;99677.75;5085017;28;20033;-78
2022/03/10 09:52:50;;;;;;;5.75;2.90;;;;;;;11.85;18.80;99684.53;5085628;28;20032;-78
2022/03/10 09:55:18;;;;;;;4.38;2.40;;;;;;;11.64;18.73;99682.25;5084010;28;20081;-78
2022/03/10 09:57:46;;;;;;;4.43;2.40;;;;;;;12.39;19.88;99679.47;5081518;28;20110;-78
2022/03/10 10:00:14;;;;;;;5.13;2.53;;;;;;;12.40;20.38;99681.13;5081175;28;20044;-78
2022/03/10 10:02:42;;;;;;;5.55;2.35;;;;;;;13.48;18.21;99661.13;5086531;28;20421;-78
2022/03/10 10:05:25;;;;;;;3.85;2.55;;;;;;;12.76;18.38;99680.13;5084576;28;20043;-78
2022/03/10 10:08:09;;;;;;;2.83;2.53;;;;;;;14.13;16.92;99678.25;5084494;28;20142;-78
2022/03/10 10:11:01;;;;;;;3.78;2.30;;;;;;;12.53;19.03;99690.44;5086539;28;20032;-78
2022/03/10 10:13:39;;;;;;;5.35;3.10;;;;;;;12.33;18.53;99688.22;5068643;28;20075;-78
2022/03/10 10:16:14;;;;;;;5.65;2.72;;;;;;;12.65;18.65;99706.34;5096892;28;20027;-77
2022/03/10 10:18:41;;;;;;;4.40;1.60;;;;;;;15.89;16.92;99690.91;5082523;28;20501;-78
2022/03/10 10:21:10;;;;;;;4.95;2.60;;;;;;;13.39;18.04;99704.44;5082768;28;20035;-78
2022/03/10 10:23:38;;;;;;;3.28;2.40;;;;;;;15.06;17.26;99697.53;5085022;28;20029;-78
2022/03/10 10:26:04;;;;;;;4.28;2.45;;;;;;;17.30;15.07;99703.25;5081328;28;20068;-78
2022/03/10 10:28:34;;;;;;;4.70;2.70;;;;;;;14.62;16.34;99701.69;5086347;28;20063;-78
2022/03/10 10:31:01;;;;;;;3.65;2.17;;;;;;;13.18;18.25;99704.25;5079964;28;20024;-78
2022/03/10 10:33:29;;;;;;;2.75;2.20;;;;;;;11.84;18.92;99702.16;5092448;28;20089;-78
2022/03/10 10:36:12;;;;;;;3.15;2.10;;;;;;;12.34;18.53;99714.63;5089646;28;20039;-78
2022/03/10 10:38:40;;;;;;;2.97;1.95;;;;;;;13.66;17.41;99718.75;5072088;28;20032;-78
2022/03/10 10:41:27;;;;;;;3.97;2.85;;;;;;;13.66;17.05;99720.69;5087484;28;20073;-78
2022/03/10 10:43:56;;;;;;;4.80;2.40;;;;;;;14.99;16.75;99709.16;5084498;28;20040;-78
2022/03/10 10:46:26;;;;;;;3.30;2.00;;;;;;;14.41;16.49;99718.19;5086207;28;20028;-78
2022/03/10 10:48:53;;;;;;;5.38;2.50;;;;;;;14.11;16.77;99708.16;5082546;28;20103;-78
2022/03/10 10:51:40;;;;;;;3.08;2.03;;;;;;;12.29;17.33;99712.81;5085115;28;20643;-78
2022/03/10 10:54:23;;;;;;;3.20;2.30;;;;;;;11.14;18.60;99721.91;5088402;28;20393;-78
2022/03/10 10:57:09;;;;;;;3.03;1.95;;;;;;;12.75;18.58;99714.31;5083534;28;20059;-78
2022/03/10 10:59:38;;;;;;;3.80;2.28;;;;;;;12.43;18.45;99713.53;5082107;28;20509;-78
2022/03/10 11:02:09;;;;;;;4.35;2.55;;;;;;;15.33;16.30;99708.13;5080095;28;20067;-78
2022/03/10 11:04:41;;;;;;;4.20;2.17;;;;;;;16.24;15.51;99698.91;5070152;28;20066;-78
2022/03/10 11:07:11;;;;;;;3.15;1.60;;;;;;;17.59;15.26;99699.41;5074581;28;20025;-78
2022/03/10 11:09:39;;;;;;;4.03;2.07;;;;;;;15.39;15.47;99697.66;5088016;28;20028;-78
2022/03/10 11:12:07;;;;;;;4.22;2.15;;;;;;;14.86;16.09;99710.19;5083552;28;20355;-78
2022/03/10 11:14:33;;;;;;;4.75;1.95;;;;;;;15.88;15.69;99703.16;5081846;28;20036;-78
2022/03/10 11:16:59;;;;;;;3.58;2.03;;;;;;;15.05;16.31;99712.53;5085755;28;20040;-78
2022/03/10 11:19:30;;;;;;;4.47;2.03;;;;;;;13.68;16.82;99716.47;5084185;28;20089;-78
2022/03/10 11:22:24;;;;;;;2.63;1.58;;;;;;;12.92;17.79;99717.13;5083185;28;20028;-78
2022/03/10 11:25:02;;;;;;;4.53;2.25;;;;;;;10.48;19.60;99727.13;5079411;28;20044;-78
2022/03/10 11:27:33;;;;;;;2.97;1.90;;;;;;;13.85;17.61;99707.38;5082445;28;20031;-78
2022/03/10 11:30:02;;;;;;;3.13;1.92;;;;;;;11.43;18.29;99719.63;5075001;28;20405;-78
2022/03/10 11:32:30;;;;;;;6.13;2.75;;;;;;;9.95;19.72;99713.75;5082123;28;20029;-78
2022/03/10 11:35:01;;;;;;;6.50;2.22;;;;;;;8.57;21.73;99708.91;5086092;28;20040;-78
2022/03/10 11:37:36;;;;;;;;;;;;;;;9.64;21.70;99731.81;5062356;28;20048;-78